createdAt,value
2023-11-15T00:02:23.624Z,4.60
2023-11-15T00:04:50.144Z,4.30
2023-11-15T00:07:16.626Z,4.03
2023-11-15T00:09:43.168Z,3.95
2023-11-15T00:12:09.854Z,4.53
2023-11-15T00:14:36.435Z,3.42
2023-11-15T00:17:04.027Z,3.35
2023-11-15T00:19:31.737Z,2.90
2023-11-15T00:21:59.028Z,3.00
2023-11-15T00:24:25.518Z,3.45
2023-11-15T00:26:51.993Z,2.53
2023-11-15T00:29:18.594Z,2.40
2023-11-15T00:31:45.137Z,2.38
2023-11-15T00:34:11.748Z,2.30
2023-11-15T00:36:39.783Z,2.25
2023-11-15T00:39:09.873Z,1.73
2023-11-15T00:41:37.150Z,1.63
2023-11-15T00:44:08.649Z,2.13
2023-11-15T00:46:36.109Z,1.90
2023-11-15T00:49:03.749Z,1.60
2023-11-15T00:51:30.699Z,1.45
2023-11-15T00:53:57.350Z,2.10
2023-11-15T00:56:24.016Z,1.75
2023-11-15T00:58:50.684Z,1.73
2023-11-15T01:03:59.614Z,1.60
2023-11-15T01:06:26.832Z,1.73
2023-11-15T01:08:56.070Z,1.60
2023-11-15T01:11:24.581Z,2.72
2023-11-15T01:13:51.290Z,2.13
2023-11-15T01:16:23.708Z,1.65
2023-11-15T01:18:51.369Z,2.90
2023-11-15T01:21:19.315Z,1.80
2023-11-15T01:23:46.491Z,2.05
2023-11-15T01:26:13.075Z,2.13
2023-11-15T01:28:39.669Z,1.85
2023-11-15T01:31:06.448Z,2.35
2023-11-15T01:33:33.173Z,1.95
2023-11-15T01:35:59.762Z,2.50
2023-11-15T01:38:26.306Z,2.50
2023-11-15T01:40:54.447Z,2.22
2023-11-15T01:43:20.994Z,2.28
2023-11-15T01:45:52.117Z,2.38
2023-11-15T01:48:19.020Z,2.58
2023-11-15T01:50:47.723Z,2.50
2023-11-15T01:53:16.039Z,2.63
2023-11-15T01:55:44.908Z,2.72
2023-11-15T01:58:11.404Z,2.88
2023-11-15T02:00:38.057Z,3.13
2023-11-15T02:03:04.718Z,2.55
2023-11-15T02:05:31.421Z,2.72
2023-11-15T02:07:58.279Z,2.90
2023-11-15T02:10:25.786Z,2.47
2023-11-15T02:12:52.539Z,3.00
2023-11-15T02:15:19.188Z,2.50
2023-11-15T02:17:49.757Z,2.72
2023-11-15T02:20:19.882Z,2.90
2023-11-15T02:22:49.648Z,3.10
2023-11-15T02:25:17.443Z,3.05
2023-11-15T02:27:45.387Z,2.78
2023-11-15T02:30:12.492Z,3.10
2023-11-15T02:32:43.401Z,2.85
2023-11-15T02:35:10.185Z,2.70
2023-11-15T02:37:37.206Z,2.63
2023-11-15T02:40:10.560Z,2.92
2023-11-15T02:42:37.877Z,2.50
2023-11-15T02:45:05.003Z,3.03
2023-11-15T02:47:31.647Z,3.38
2023-11-15T02:49:58.238Z,2.75
2023-11-15T02:52:24.691Z,2.92
2023-11-15T02:54:51.834Z,3.10
2023-11-15T02:57:19.360Z,3.38
2023-11-15T02:59:45.909Z,2.67
2023-11-15T03:02:12.444Z,3.05
2023-11-15T03:04:38.994Z,3.00
2023-11-15T03:07:05.504Z,4.03
2023-11-15T03:09:32.853Z,3.63
2023-11-15T03:11:59.427Z,4.82
2023-11-15T03:14:27.112Z,3.13
2023-11-15T03:16:54.299Z,3.22
2023-11-15T03:19:21.439Z,3.38
2023-11-15T03:21:47.899Z,2.95
2023-11-15T03:24:14.383Z,3.83
2023-11-15T03:26:40.921Z,3.50
2023-11-15T03:29:07.578Z,3.38
2023-11-15T03:31:34.801Z,2.97
2023-11-15T03:34:01.337Z,2.83
2023-11-15T03:36:28.781Z,3.60
2023-11-15T03:38:55.600Z,3.35
2023-11-15T03:41:22.387Z,3.33
2023-11-15T03:43:49.078Z,3.17
2023-11-15T03:46:15.677Z,3.55
2023-11-15T03:48:42.297Z,3.25
2023-11-15T03:51:08.884Z,3.63
2023-11-15T03:53:35.570Z,3.38
2023-11-15T03:56:02.080Z,3.60
2023-11-15T03:58:28.597Z,3.38
2023-11-15T04:00:58.011Z,3.60
2023-11-15T04:03:24.845Z,3.03
2023-11-15T04:05:51.471Z,3.75
2023-11-15T04:08:18.225Z,3.70
2023-11-15T04:10:44.816Z,3.65
2023-11-15T04:13:11.406Z,3.67
2023-11-15T04:15:38.071Z,3.47
2023-11-15T04:18:05.324Z,3.28
2023-11-15T04:20:32.186Z,3.30
2023-11-15T04:22:58.855Z,2.88
2023-11-15T04:25:25.988Z,3.15
2023-11-15T04:27:52.932Z,3.40
2023-11-15T04:30:19.582Z,3.25
2023-11-15T04:32:47.200Z,3.47
2023-11-15T04:35:14.134Z,3.70
2023-11-15T04:37:40.655Z,3.72
2023-11-15T04:40:08.514Z,3.53
2023-11-15T04:42:35.274Z,3.65
2023-11-15T04:45:03.128Z,3.70
2023-11-15T04:47:31.476Z,3.83
2023-11-15T04:49:58.138Z,4.53
2023-11-15T04:52:24.598Z,4.22
2023-11-15T04:54:51.172Z,4.35
2023-11-15T04:57:21.039Z,4.10
2023-11-15T04:59:47.527Z,4.18
2023-11-15T05:02:15.175Z,4.72
2023-11-15T05:04:41.706Z,4.13
2023-11-15T05:07:08.247Z,5.05
2023-11-15T05:09:34.825Z,4.95
2023-11-15T05:12:01.385Z,4.80
2023-11-15T05:14:27.916Z,5.13
2023-11-15T05:16:54.429Z,5.50
2023-11-15T05:19:20.894Z,4.90
2023-11-15T05:21:47.508Z,5.18
2023-11-15T05:24:14.017Z,5.45
2023-11-15T05:26:40.738Z,5.05
2023-11-15T05:29:07.403Z,5.70
2023-11-15T05:31:34.023Z,5.65
2023-11-15T05:34:00.630Z,5.80
2023-11-15T05:36:27.208Z,6.22
2023-11-15T05:38:53.754Z,6.50
2023-11-15T05:41:20.683Z,7.32
2023-11-15T05:43:47.914Z,6.22
2023-11-15T05:46:14.510Z,7.80
2023-11-15T05:48:41.131Z,7.53
2023-11-15T05:51:08.004Z,7.75
2023-11-15T05:53:34.608Z,7.88
2023-11-15T05:56:01.134Z,7.07
2023-11-15T05:58:27.694Z,7.53
2023-11-15T06:00:54.184Z,7.43
2023-11-15T06:03:20.763Z,7.60
2023-11-15T06:05:48.552Z,7.85
2023-11-15T06:08:15.132Z,8.60
2023-11-15T06:10:41.743Z,8.13
2023-11-15T06:13:08.404Z,7.80
2023-11-15T06:15:34.950Z,8.57
2023-11-15T06:18:01.642Z,9.07
2023-11-15T06:20:30.995Z,8.90
2023-11-15T06:22:58.179Z,8.80
2023-11-15T06:25:24.849Z,7.45
2023-11-15T06:27:51.397Z,6.60
2023-11-15T06:30:18.088Z,6.30
2023-11-15T06:32:45.684Z,5.55
2023-11-15T06:35:19.311Z,6.43
2023-11-15T06:37:49.717Z,6.30
2023-11-15T06:40:17.264Z,6.22
2023-11-15T06:42:44.081Z,5.88
2023-11-15T06:45:11.377Z,4.80
2023-11-15T06:47:38.116Z,3.88
2023-11-15T06:50:05.742Z,4.43
2023-11-15T06:52:39.123Z,5.80
2023-11-15T06:55:07.933Z,6.10
2023-11-15T06:57:34.550Z,5.97
2023-11-15T07:00:01.188Z,6.55
2023-11-15T07:02:27.752Z,6.30
2023-11-15T07:04:55.860Z,6.03
2023-11-15T07:07:22.431Z,5.38
2023-11-15T07:09:49.065Z,5.28
2023-11-15T07:12:15.815Z,5.18
2023-11-15T07:14:45.764Z,4.88
2023-11-15T07:17:13.813Z,5.07
2023-11-15T07:19:40.436Z,4.85
2023-11-15T07:22:06.963Z,4.85
2023-11-15T07:24:42.053Z,4.80
2023-11-15T07:27:08.969Z,4.95
2023-11-15T07:29:37.036Z,4.97
2023-11-15T07:32:05.475Z,4.50
2023-11-15T07:34:35.284Z,4.65
2023-11-15T07:37:01.805Z,5.15
2023-11-15T07:39:28.491Z,4.57
2023-11-15T07:41:58.651Z,4.57
2023-11-15T07:44:27.159Z,5.10
2023-11-15T07:46:56.132Z,4.68
2023-11-15T07:49:24.982Z,4.32
2023-11-15T07:51:52.359Z,4.57
2023-11-15T07:54:20.375Z,4.78
2023-11-15T07:56:47.000Z,4.60
2023-11-15T07:59:13.645Z,4.40
2023-11-15T08:01:45.826Z,4.05
2023-11-15T08:04:15.072Z,3.90
2023-11-15T08:06:43.542Z,3.95
2023-11-15T08:09:25.108Z,3.88
2023-11-15T08:11:56.604Z,4.05
2023-11-15T08:14:23.971Z,3.90
2023-11-15T08:16:50.854Z,3.50
2023-11-15T08:19:19.353Z,3.80
2023-11-15T08:21:46.018Z,3.72
2023-11-15T08:24:18.968Z,3.45
2023-11-15T08:29:13.196Z,2.70
2023-11-15T08:31:39.772Z,2.72
2023-11-15T08:34:06.541Z,2.67
2023-11-15T08:36:33.689Z,1.85
2023-11-15T08:39:00.456Z,2.50
2023-11-15T08:41:27.090Z,1.90
2023-11-15T08:43:53.590Z,1.63
2023-11-15T08:46:21.206Z,2.13
2023-11-15T08:48:53.047Z,1.50
2023-11-15T08:51:20.520Z,1.42
2023-11-15T08:53:48.624Z,1.35
2023-11-15T08:56:15.529Z,1.60
2023-11-15T08:58:42.418Z,1.45
2023-11-15T09:01:10.510Z,1.20
2023-11-15T09:03:40.373Z,1.27
2023-11-15T09:06:07.585Z,1.17
2023-11-15T09:08:35.112Z,1.20
2023-11-15T09:11:01.639Z,1.20
2023-11-15T09:13:30.266Z,1.00
2023-11-15T09:15:56.800Z,1.10
2023-11-15T09:18:25.069Z,1.42
2023-11-15T09:20:53.844Z,1.50
2023-11-15T09:23:28.475Z,1.30
2023-11-15T09:25:59.935Z,1.23
2023-11-15T09:28:26.661Z,0.98
2023-11-15T09:30:53.772Z,1.05
2023-11-15T09:33:21.940Z,1.20
2023-11-15T09:35:55.044Z,1.00
2023-11-15T09:38:27.538Z,1.40
2023-11-15T09:40:54.644Z,1.30
2023-11-15T09:43:21.661Z,1.38
2023-11-15T09:45:49.455Z,1.50
2023-11-15T09:48:16.261Z,1.27
2023-11-15T09:50:49.956Z,1.38
2023-11-15T09:53:19.304Z,1.08
2023-11-15T09:55:48.896Z,1.30
2023-11-15T09:58:15.704Z,1.40
2023-11-15T10:00:42.454Z,1.20
2023-11-15T10:03:09.250Z,1.48
2023-11-15T10:05:35.890Z,1.70
2023-11-15T10:08:14.156Z,1.17
2023-11-15T10:10:44.400Z,1.52
2023-11-15T10:13:19.455Z,1.30
2023-11-15T10:15:47.607Z,0.90
2023-11-15T10:18:34.906Z,1.10
2023-11-15T10:21:08.743Z,1.02
2023-11-15T10:23:37.739Z,1.05
2023-11-15T10:26:07.080Z,1.00
2023-11-15T10:28:34.355Z,1.17
2023-11-15T10:31:06.109Z,0.90
2023-11-15T10:33:33.955Z,1.02
2023-11-15T10:36:22.880Z,0.85
2023-11-15T10:38:56.250Z,0.77
2023-11-15T10:41:24.460Z,0.80
2023-11-15T10:43:52.689Z,1.20
2023-11-15T10:46:31.227Z,1.27
2023-11-15T10:49:00.048Z,1.00
2023-11-15T10:51:36.609Z,0.80
2023-11-15T10:54:04.424Z,0.93
2023-11-15T10:56:33.184Z,0.93
2023-11-15T10:59:01.224Z,0.95
2023-11-15T11:01:30.545Z,0.90
2023-11-15T11:03:57.889Z,0.88
2023-11-15T11:06:36.030Z,1.10
2023-11-15T11:09:12.306Z,0.73
2023-11-15T11:12:06.928Z,1.00
2023-11-15T11:14:34.318Z,1.15
2023-11-15T11:17:03.743Z,0.90
2023-11-15T11:19:30.714Z,0.95
2023-11-15T11:22:07.262Z,1.00
2023-11-15T11:24:39.721Z,0.90
2023-11-15T11:27:10.883Z,0.90
2023-11-15T11:29:57.646Z,0.85
2023-11-15T11:32:28.929Z,1.10
2023-11-15T11:35:14.889Z,0.95
2023-11-15T11:37:45.443Z,1.20
2023-11-15T11:40:15.718Z,0.70
2023-11-15T11:42:45.069Z,1.13
2023-11-15T11:45:14.050Z,0.68
2023-11-15T11:47:42.125Z,0.80
2023-11-15T11:50:12.033Z,0.70
2023-11-15T11:52:40.835Z,0.90
2023-11-15T11:55:08.008Z,0.70
2023-11-15T11:57:35.288Z,0.80
2023-11-15T12:00:12.225Z,0.90
2023-11-15T12:02:43.143Z,1.00
2023-11-15T12:05:13.491Z,1.45
2023-11-15T12:07:44.634Z,1.27
2023-11-15T12:10:12.351Z,1.13
2023-11-15T12:12:40.598Z,1.40
2023-11-15T12:15:14.448Z,1.30
2023-11-15T12:17:43.057Z,1.50
2023-11-15T12:20:14.036Z,1.10
2023-11-15T12:22:43.748Z,1.30
2023-11-15T12:25:17.601Z,1.10
2023-11-15T12:27:44.832Z,1.40
2023-11-15T12:30:12.304Z,2.28
2023-11-15T12:32:42.824Z,1.90
2023-11-15T12:35:10.658Z,1.88
2023-11-15T12:37:38.093Z,2.30
2023-11-15T12:40:21.780Z,2.38
2023-11-15T12:42:57.602Z,2.60
2023-11-15T12:45:35.251Z,3.17
2023-11-15T12:48:01.910Z,2.85
2023-11-15T12:50:30.163Z,3.33
2023-11-15T12:53:12.667Z,3.50
2023-11-15T12:55:46.684Z,3.45
2023-11-15T12:58:15.837Z,3.10
2023-11-15T13:01:02.448Z,3.20
2023-11-15T13:03:37.869Z,2.80
2023-11-15T13:06:13.039Z,3.13
2023-11-15T13:08:43.682Z,3.38
2023-11-15T13:11:15.595Z,3.20
2023-11-15T13:13:48.741Z,2.85
2023-11-15T13:16:19.543Z,3.05
2023-11-15T13:18:48.770Z,2.85
2023-11-15T13:21:17.675Z,2.90
2023-11-15T13:23:46.513Z,3.10
2023-11-15T13:26:17.998Z,2.42
2023-11-15T13:28:46.253Z,2.63
2023-11-15T13:31:16.260Z,2.78
2023-11-15T13:33:46.287Z,2.97
2023-11-15T13:36:16.987Z,3.35
2023-11-15T13:38:44.020Z,3.05
2023-11-15T13:41:14.228Z,2.80
2023-11-15T13:43:42.177Z,2.58
2023-11-15T13:46:09.788Z,2.40
2023-11-15T13:48:37.699Z,2.60
2023-11-15T13:51:08.198Z,2.47
2023-11-15T13:53:37.886Z,2.83
2023-11-15T13:56:06.171Z,2.47
2023-11-15T13:58:33.201Z,2.25
2023-11-15T14:01:00.009Z,2.33
2023-11-15T14:03:28.032Z,2.63
2023-11-15T14:05:59.616Z,2.40
2023-11-15T14:08:40.298Z,2.85
2023-11-15T14:11:13.997Z,2.30
2023-11-15T14:13:43.379Z,3.17
2023-11-15T14:16:10.422Z,2.25
2023-11-15T14:18:37.165Z,2.47
2023-11-15T14:21:05.766Z,2.65
2023-11-15T14:23:33.139Z,2.90
2023-11-15T14:26:00.162Z,2.88
2023-11-15T14:28:27.248Z,2.80
2023-11-15T14:30:53.924Z,2.75
2023-11-15T14:33:20.698Z,3.22
2023-11-15T14:35:47.382Z,2.75
2023-11-15T14:38:13.985Z,2.83
2023-11-15T14:40:41.616Z,2.53
2023-11-15T14:43:09.847Z,2.47
2023-11-15T14:45:36.400Z,2.67
2023-11-15T14:48:03.468Z,2.55
2023-11-15T14:50:30.601Z,1.83
2023-11-15T14:53:23.643Z,2.60
2023-11-15T14:55:58.631Z,1.90
2023-11-15T14:58:40.277Z,2.17
2023-11-15T15:01:11.538Z,1.58
2023-11-15T15:03:39.173Z,1.67
2023-11-15T15:06:09.372Z,1.83
2023-11-15T15:08:46.639Z,2.30
2023-11-15T15:11:22.116Z,1.80
2023-11-15T15:13:54.481Z,2.42
2023-11-15T15:16:28.236Z,1.80
2023-11-15T15:18:54.956Z,1.60
2023-11-15T15:21:22.717Z,1.85
2023-11-15T15:23:49.407Z,1.92
2023-11-15T15:26:18.370Z,1.95
2023-11-15T15:28:46.115Z,1.60
2023-11-15T15:31:13.977Z,1.10
2023-11-15T15:33:40.759Z,1.65
2023-11-15T15:36:10.287Z,2.15
2023-11-15T15:38:37.227Z,1.50
2023-11-15T15:41:05.118Z,1.80
2023-11-15T15:43:31.915Z,1.65
2023-11-15T15:45:58.508Z,1.70
2023-11-15T15:48:25.261Z,1.73
2023-11-15T15:50:53.725Z,1.98
2023-11-15T15:53:20.390Z,1.60
2023-11-15T15:55:48.641Z,1.70
2023-11-15T15:58:16.585Z,1.55
2023-11-15T16:00:43.126Z,1.40
2023-11-15T16:03:10.145Z,1.35
2023-11-15T16:05:36.790Z,1.75
2023-11-15T16:08:03.435Z,1.20
2023-11-15T16:10:30.056Z,1.50
2023-11-15T16:12:57.658Z,1.60
2023-11-15T16:15:24.206Z,1.70
2023-11-15T16:17:52.368Z,1.60
2023-11-15T16:20:20.518Z,1.65
2023-11-15T16:22:47.156Z,1.60
2023-11-15T16:25:13.835Z,2.05
2023-11-15T16:27:41.387Z,1.38
2023-11-15T16:30:15.187Z,1.65
2023-11-15T16:32:43.377Z,1.33
2023-11-15T16:35:10.586Z,1.48
2023-11-15T16:37:40.009Z,1.50
2023-11-15T16:40:10.960Z,1.40
2023-11-15T16:42:38.878Z,1.70
2023-11-15T16:45:08.028Z,1.48
2023-11-15T16:47:36.237Z,1.83
2023-11-15T16:50:04.843Z,2.00
2023-11-15T16:52:33.970Z,2.17
2023-11-15T16:55:01.689Z,1.45
2023-11-15T16:57:28.287Z,1.67
2023-11-15T16:59:56.260Z,1.80
2023-11-15T17:02:22.978Z,1.70
2023-11-15T17:04:49.518Z,2.00
2023-11-15T17:07:16.104Z,2.47
2023-11-15T17:09:42.648Z,2.35
2023-11-15T17:12:09.677Z,2.05
2023-11-15T17:14:36.803Z,2.40
2023-11-15T17:17:05.345Z,2.10
2023-11-15T17:19:32.084Z,2.05
2023-11-15T17:21:59.786Z,2.28
2023-11-15T17:24:27.032Z,2.22
2023-11-15T17:26:53.841Z,2.20
2023-11-15T17:29:21.518Z,2.60
2023-11-15T17:31:48.229Z,2.35
2023-11-15T17:34:17.564Z,2.83
2023-11-15T17:36:44.976Z,2.35
2023-11-15T17:39:16.571Z,2.38
2023-11-15T17:41:43.190Z,2.53
2023-11-15T17:44:12.945Z,2.30
2023-11-15T17:46:42.662Z,2.58
2023-11-15T17:49:11.293Z,2.50
2023-11-15T17:51:38.118Z,2.05
2023-11-15T17:54:07.261Z,2.53
2023-11-15T17:56:33.777Z,2.00
2023-11-15T17:59:00.291Z,2.67
2023-11-15T18:01:33.948Z,2.33
2023-11-15T18:04:01.043Z,1.92
2023-11-15T18:06:27.691Z,2.25
2023-11-15T18:08:54.333Z,2.70
2023-11-15T18:11:20.864Z,2.13
2023-11-15T18:13:47.448Z,2.28
2023-11-15T18:16:14.075Z,2.25
2023-11-15T18:18:42.116Z,2.50
2023-11-15T18:21:08.824Z,2.92
2023-11-15T18:23:35.478Z,2.08
2023-11-15T18:26:02.162Z,2.38
2023-11-15T18:28:30.447Z,2.17
2023-11-15T18:30:56.981Z,2.80
2023-11-15T18:33:25.211Z,2.75
2023-11-15T18:35:52.024Z,2.58
2023-11-15T18:38:18.722Z,2.92
2023-11-15T18:40:47.746Z,2.30
2023-11-15T18:43:14.362Z,2.72
2023-11-15T18:45:40.956Z,2.15
2023-11-15T18:48:07.849Z,3.05
2023-11-15T18:50:34.436Z,2.60
2023-11-15T18:53:04.042Z,2.45
2023-11-15T18:55:32.521Z,2.70
2023-11-15T18:57:59.068Z,2.60
2023-11-15T19:00:27.329Z,2.63
2023-11-15T19:02:55.515Z,2.25
2023-11-15T19:05:24.191Z,2.45
2023-11-15T19:07:51.280Z,3.53
2023-11-15T19:10:18.248Z,2.85
2023-11-15T19:13:03.617Z,3.08
2023-11-15T19:15:31.029Z,2.92
2023-11-15T19:17:58.208Z,2.50
2023-11-15T19:20:27.020Z,3.22
2023-11-15T19:22:54.720Z,2.78
2023-11-15T19:25:22.497Z,2.25
2023-11-15T19:27:49.965Z,2.70
2023-11-15T19:30:17.626Z,2.70
2023-11-15T19:32:44.427Z,2.60
2023-11-15T19:35:12.016Z,2.70
2023-11-15T19:37:39.223Z,2.85
2023-11-15T19:42:39.850Z,2.70
2023-11-15T19:45:08.633Z,3.08
2023-11-15T19:47:35.388Z,2.80
2023-11-15T19:50:02.018Z,3.03
2023-11-15T19:52:30.740Z,2.88
2023-11-15T19:54:58.724Z,2.63
2023-11-15T19:57:28.497Z,2.88
2023-11-15T19:59:56.381Z,3.17
2023-11-15T20:02:27.128Z,2.75
2023-11-15T20:04:58.002Z,2.50
2023-11-15T20:07:26.851Z,2.22
2023-11-15T20:09:53.930Z,2.90
2023-11-15T20:12:23.304Z,2.35
2023-11-15T20:14:50.345Z,3.00
2023-11-15T20:17:16.849Z,2.90
2023-11-15T20:19:43.341Z,2.50
2023-11-15T20:22:09.911Z,2.92
2023-11-15T20:24:37.059Z,2.30
2023-11-15T20:27:04.928Z,2.60
2023-11-15T20:29:31.726Z,2.78
2023-11-15T20:31:58.213Z,3.25
2023-11-15T20:34:25.239Z,2.72
2023-11-15T20:36:53.931Z,2.78
2023-11-15T20:39:24.905Z,3.35
2023-11-15T20:41:53.626Z,2.97
2023-11-15T20:44:20.709Z,2.95
2023-11-15T20:46:47.414Z,2.55
2023-11-15T20:49:14.271Z,2.58
2023-11-15T20:51:53.204Z,3.45
2023-11-15T20:54:25.796Z,2.75
2023-11-15T20:56:52.554Z,2.85
2023-11-15T20:59:19.158Z,3.28
2023-11-15T21:01:47.901Z,2.80
2023-11-15T21:04:20.877Z,3.50
2023-11-15T21:06:49.650Z,2.95
2023-11-15T21:09:16.591Z,3.67
2023-11-15T21:11:44.477Z,3.58
2023-11-15T21:14:11.528Z,3.25
2023-11-15T21:16:38.427Z,3.05
2023-11-15T21:19:06.153Z,3.83
2023-11-15T21:21:34.146Z,3.28
2023-11-15T21:24:01.851Z,3.50
2023-11-15T21:26:28.479Z,3.63
2023-11-15T21:28:55.356Z,3.28
2023-11-15T21:31:24.710Z,3.28
2023-11-15T21:33:51.272Z,3.42
2023-11-15T21:36:18.107Z,3.30
2023-11-15T21:38:45.536Z,3.25
2023-11-15T21:41:12.215Z,3.75
2023-11-15T21:43:39.092Z,3.13
2023-11-15T21:46:06.099Z,2.70
2023-11-15T21:48:34.160Z,3.22
2023-11-15T21:51:00.800Z,3.42
2023-11-15T21:53:29.471Z,3.60
2023-11-15T21:55:59.597Z,3.88
2023-11-15T21:58:26.083Z,3.33
2023-11-15T22:00:52.665Z,3.65
2023-11-15T22:03:19.233Z,3.00
2023-11-15T22:05:45.773Z,3.70
2023-11-15T22:08:12.273Z,3.92
2023-11-15T22:10:38.929Z,3.30
2023-11-15T22:13:05.521Z,3.28
2023-11-15T22:15:32.123Z,3.47
2023-11-15T22:17:58.780Z,3.22
2023-11-15T22:20:25.361Z,3.22
2023-11-15T22:22:51.933Z,2.92
2023-11-15T22:25:18.541Z,3.47
2023-11-15T22:27:45.198Z,4.10
2023-11-15T22:30:12.582Z,3.13
2023-11-15T22:32:40.764Z,3.55
2023-11-15T22:35:08.271Z,3.22
2023-11-15T22:37:34.903Z,3.47
2023-11-15T22:40:01.487Z,3.10
2023-11-15T22:42:28.202Z,3.40
2023-11-15T22:44:55.259Z,3.17
2023-11-15T22:47:21.945Z,2.88
2023-11-15T22:49:48.589Z,3.05
2023-11-15T22:52:15.165Z,3.88
2023-11-15T22:54:41.714Z,3.10
2023-11-15T22:57:08.232Z,3.47
2023-11-15T22:59:38.296Z,3.42
2023-11-15T23:02:05.106Z,3.65
2023-11-15T23:04:31.888Z,3.78
2023-11-15T23:06:59.251Z,2.70
2023-11-15T23:09:25.946Z,2.92
2023-11-15T23:11:52.451Z,3.20
2023-11-15T23:14:19.831Z,3.20
2023-11-15T23:16:46.533Z,2.95
2023-11-15T23:19:13.175Z,3.47
2023-11-15T23:21:45.624Z,3.50
2023-11-15T23:24:17.330Z,3.10
2023-11-15T23:26:43.882Z,3.30
2023-11-15T23:29:11.963Z,3.15
2023-11-15T23:31:38.562Z,3.60
2023-11-15T23:34:05.169Z,3.95
2023-11-15T23:36:31.891Z,3.78
2023-11-15T23:38:59.688Z,3.00
2023-11-15T23:41:29.460Z,3.40
2023-11-15T23:43:56.595Z,3.58
2023-11-15T23:46:23.198Z,3.45
2023-11-15T23:48:49.888Z,3.92
2023-11-15T23:51:16.556Z,3.65
2023-11-15T23:53:43.156Z,3.03
2023-11-15T23:56:09.926Z,3.30
2023-11-15T23:58:36.593Z,3.88
